createdAt,value
2022-12-05T06:12:14.150Z,75.18
2022-12-05T06:14:48.861Z,74.20
2022-12-05T06:17:21.002Z,77.45
2022-12-05T06:19:52.998Z,74.18
2022-12-05T06:22:25.310Z,69.72
2022-12-05T06:24:57.390Z,81.10
2022-12-05T06:27:31.501Z,73.88
2022-12-05T06:30:04.299Z,70.93
2022-12-05T06:32:36.317Z,71.75
2022-12-05T06:35:15.404Z,71.13
2022-12-05T06:37:47.461Z,65.93
2022-12-05T06:40:19.654Z,60.38
2022-12-05T06:42:51.652Z,63.72
2022-12-05T06:45:23.648Z,57.90
2022-12-05T06:47:55.701Z,58.60
2022-12-05T06:50:28.501Z,51.15
2022-12-05T06:53:00.579Z,57.40
2022-12-05T06:55:32.609Z,54.53
2022-12-05T06:58:04.848Z,55.35
2022-12-05T07:00:55.797Z,54.17
2022-12-05T07:03:27.900Z,41.65
2022-12-05T07:06:04.518Z,41.08
2022-12-05T07:08:36.652Z,44.47
2022-12-05T07:11:09.431Z,43.85
2022-12-05T07:13:41.487Z,41.17
2022-12-05T07:16:14.307Z,47.42
2022-12-05T07:18:46.513Z,53.47
2022-12-05T07:21:20.369Z,53.38
2022-12-05T07:23:52.460Z,48.10
2022-12-05T07:26:25.377Z,52.55
2022-12-05T07:28:58.096Z,53.20
2022-12-05T07:31:30.181Z,49.93
2022-12-05T07:34:02.898Z,61.65
2022-12-05T07:36:35.061Z,54.75
2022-12-05T07:39:07.368Z,55.22
2022-12-05T07:41:39.598Z,59.80
2022-12-05T07:44:14.086Z,48.88
2022-12-05T07:46:46.143Z,51.28
2022-12-05T07:49:18.654Z,55.72
2022-12-05T07:51:51.012Z,55.47
2022-12-05T07:54:23.056Z,58.20
2022-12-05T07:56:55.332Z,60.17
2022-12-05T07:59:27.920Z,66.68
2022-12-05T08:01:59.975Z,57.30
2022-12-05T08:04:32.049Z,59.10
2022-12-05T08:07:04.050Z,62.08
2022-12-05T08:09:36.045Z,55.85
2022-12-05T08:12:08.149Z,50.20
2022-12-05T08:14:40.331Z,56.08
2022-12-05T08:17:12.419Z,49.58
2022-12-05T08:19:44.831Z,53.67
2022-12-05T08:22:16.948Z,59.03
2022-12-05T08:24:56.293Z,56.50
2022-12-05T08:27:28.739Z,49.30
2022-12-05T08:30:00.960Z,56.30
2022-12-05T08:32:33.518Z,50.67
2022-12-05T08:35:05.978Z,46.03
2022-12-05T08:37:38.092Z,52.17
2022-12-05T08:40:10.751Z,50.63
2022-12-05T08:42:43.068Z,51.63
2022-12-05T08:45:15.218Z,56.03
2022-12-05T08:47:47.228Z,50.03
2022-12-05T08:50:19.552Z,61.03
2022-12-05T08:52:52.278Z,58.25
2022-12-05T08:55:24.333Z,65.03
2022-12-05T08:57:56.324Z,61.88
2022-12-05T09:00:28.626Z,59.08
2022-12-05T09:03:01.279Z,65.28
2022-12-05T09:05:33.384Z,51.00
2022-12-05T09:08:05.761Z,48.97
2022-12-05T09:10:38.522Z,50.60
2022-12-05T14:00:51.846Z,14.48
2022-12-05T14:03:33.323Z,14.70
2022-12-05T14:06:07.257Z,12.32
2022-12-05T14:08:39.302Z,13.20
2022-12-05T14:11:12.180Z,11.20
2022-12-05T14:13:45.670Z,9.30
2022-12-05T14:19:11.702Z,9.80
2022-12-05T14:21:58.854Z,9.43
2022-12-05T14:24:55.936Z,10.02
2022-12-05T14:28:06.314Z,11.77
2022-12-05T14:31:05.704Z,12.10
2022-12-05T14:33:38.586Z,16.70
2022-12-05T14:36:19.126Z,11.57
2022-12-05T14:38:51.467Z,12.43
2022-12-05T14:41:32.140Z,13.73
2022-12-05T14:44:08.607Z,10.85
2022-12-05T14:46:45.556Z,12.45
2022-12-05T14:49:58.239Z,15.40
2022-12-05T14:52:32.178Z,12.95
2022-12-05T14:55:13.040Z,11.93
2022-12-05T14:57:50.317Z,11.50
2022-12-05T15:00:23.852Z,12.27
2022-12-05T15:02:57.411Z,12.90
2022-12-05T15:05:34.511Z,13.65
2022-12-05T15:08:06.859Z,13.02
2022-12-05T15:10:39.826Z,16.90
2022-12-05T15:13:21.256Z,15.75
2022-12-05T15:16:13.308Z,18.45
2022-12-05T15:18:51.884Z,14.40
2022-12-05T15:21:26.645Z,13.93
2022-12-05T15:24:04.760Z,18.55
2022-12-05T15:26:49.079Z,16.38
2022-12-05T15:29:24.504Z,15.57
2022-12-05T15:32:07.778Z,15.75
2022-12-05T15:34:46.124Z,16.67
2022-12-05T15:37:35.146Z,15.35
2022-12-05T15:40:14.382Z,18.35
2022-12-05T15:42:51.922Z,18.02
2022-12-05T15:45:27.377Z,17.25
2022-12-05T15:48:05.562Z,19.85
2022-12-05T15:50:47.802Z,13.93
2022-12-05T15:53:40.872Z,11.80
2022-12-05T15:56:23.247Z,15.13
2022-12-05T15:59:33.514Z,14.95
2022-12-05T16:02:17.339Z,13.50
2022-12-05T16:07:29.591Z,11.52
2022-12-05T16:10:02.655Z,13.73
2022-12-05T16:12:40.727Z,12.52
2022-12-05T16:15:22.678Z,14.20
2022-12-05T16:18:00.663Z,10.52
2022-12-05T16:20:36.778Z,11.43
2022-12-05T16:23:30.108Z,10.52
2022-12-05T16:26:24.710Z,10.13
2022-12-05T16:29:01.748Z,11.00
2022-12-05T16:31:34.318Z,9.88
2022-12-05T16:34:15.004Z,13.48
2022-12-05T16:36:49.709Z,17.80
2022-12-05T16:39:22.843Z,26.52
2022-12-05T16:41:55.952Z,17.25
2022-12-05T16:44:31.911Z,24.58
2022-12-05T16:47:04.179Z,25.35
2022-12-05T16:49:42.602Z,19.42
2022-12-05T16:52:17.321Z,45.90
2022-12-05T16:54:50.693Z,15.45
2022-12-05T16:57:22.954Z,23.53
2022-12-05T16:59:54.972Z,15.05
2022-12-05T17:02:27.100Z,11.32
2022-12-05T17:05:03.240Z,11.35
2022-12-05T17:07:35.481Z,9.15
2022-12-05T17:10:08.289Z,26.13
2022-12-05T17:12:43.457Z,10.67
2022-12-05T17:15:21.168Z,14.40
2022-12-05T17:20:25.291Z,4.75
2022-12-05T17:22:57.621Z,12.35
2022-12-05T17:25:36.417Z,6.90
2022-12-05T17:28:09.078Z,10.35
2022-12-05T17:30:41.277Z,10.33
2022-12-05T17:33:15.731Z,11.70
2022-12-05T17:35:47.895Z,12.48
2022-12-05T17:38:20.012Z,13.18
2022-12-05T17:40:52.325Z,15.35
2022-12-05T17:43:25.500Z,15.48
2022-12-05T17:46:01.821Z,16.67
2022-12-05T17:48:33.973Z,11.73
2022-12-05T17:51:11.415Z,12.07
2022-12-05T17:53:45.612Z,10.32
2022-12-05T17:56:17.889Z,12.98
2022-12-05T17:58:50.728Z,10.98
2022-12-05T18:01:22.984Z,14.02
2022-12-05T18:03:55.024Z,15.20
2022-12-05T18:06:28.996Z,14.75
2022-12-05T18:09:01.493Z,14.23
2022-12-05T18:11:33.725Z,14.98
2022-12-05T18:14:05.929Z,25.45
2022-12-05T18:16:38.173Z,31.98
2022-12-05T18:19:10.693Z,20.45
2022-12-05T18:21:42.714Z,16.48
2022-12-05T18:24:14.910Z,12.98
2022-12-05T18:26:47.187Z,15.38
2022-12-05T18:29:19.256Z,15.70
2022-12-05T18:31:51.421Z,14.10
2022-12-05T18:34:23.851Z,12.43
2022-12-05T18:36:56.222Z,12.57
2022-12-05T18:39:28.314Z,12.68
2022-12-05T18:42:01.020Z,14.20
2022-12-05T18:44:34.554Z,16.98
2022-12-05T18:47:06.618Z,22.70
2022-12-05T18:49:38.746Z,22.17
2022-12-05T18:52:10.961Z,22.90
2022-12-05T18:54:43.073Z,24.45
2022-12-05T18:57:15.722Z,23.23
2022-12-05T18:59:51.983Z,31.02
2022-12-05T19:02:24.719Z,22.25
2022-12-05T19:04:57.967Z,19.65
2022-12-05T19:07:30.256Z,20.33
2022-12-05T19:10:02.376Z,20.52
2022-12-05T19:12:35.407Z,17.90
2022-12-05T19:15:07.737Z,14.98
2022-12-05T19:17:39.725Z,17.00
2022-12-05T19:20:12.440Z,14.75
2022-12-05T19:22:44.671Z,13.55
2022-12-05T19:25:17.040Z,12.18
2022-12-05T19:27:49.216Z,18.85
2022-12-05T19:30:21.258Z,13.23
2022-12-05T19:32:53.270Z,14.52
2022-12-05T19:35:25.370Z,14.65
2022-12-05T19:37:57.348Z,11.48
2022-12-05T19:40:29.331Z,13.50
2022-12-05T19:43:01.538Z,16.67
2022-12-05T19:45:33.569Z,14.88
2022-12-05T19:48:06.002Z,18.63
2022-12-05T19:50:38.045Z,16.80
2022-12-05T19:53:12.362Z,14.15
2022-12-05T19:55:44.687Z,20.48
2022-12-05T19:58:16.759Z,11.70
2022-12-05T20:00:52.486Z,14.30
2022-12-05T20:03:24.670Z,11.98
2022-12-05T20:05:58.923Z,14.50
2022-12-05T20:08:32.472Z,14.65
2022-12-05T20:11:13.207Z,36.88
2022-12-05T20:13:47.338Z,89.30
2022-12-05T20:16:21.867Z,44.72
2022-12-05T20:18:59.088Z,27.67
2022-12-05T20:21:35.085Z,20.55
2022-12-05T20:24:08.049Z,20.55
2022-12-05T20:26:42.878Z,28.85
2022-12-05T20:29:14.915Z,21.60
2022-12-05T20:31:46.979Z,19.35
2022-12-05T20:34:18.981Z,16.30
2022-12-05T20:36:50.956Z,17.75
2022-12-05T20:39:24.885Z,21.45
2022-12-05T20:41:57.686Z,22.17
2022-12-05T20:44:29.946Z,20.50
2022-12-05T20:47:02.026Z,26.52
2022-12-05T20:49:34.653Z,19.58
2022-12-05T20:52:06.791Z,23.80
